METAR Data
IDs: Format: Raw Decoded Include TAF

Data at: 0109 UTC 25 Mar 2019

KSDA 250055Z AUTO 36006G12KT 10SM OVC009 08/08 A3008 RMK AO2
KSDA 250035Z AUTO 36006G13KT 8SM OVC008 08/08 A3007 RMK AO2
KSDA 250015Z AUTO 01010KT 8SM OVC008 08/08 A3006 RMK AO2
KSDA 242355Z AUTO 03011KT 7SM OVC008 08/08 A3005 RMK AO2
KSDA 242335Z AUTO 02012G17KT 7SM OVC007 08/08 A3005 RMK AO2
KSDA 242315Z AUTO 01012KT 8SM OVC007 09/09 A3004 RMK AO2
KSDA 242255Z AUTO 02012KT 8SM OVC007 09/09 A3003 RMK AO2
KSDA 242235Z AUTO 02012KT 4SM BR OVC006 09/09 A3003 RMK AO2
KSDA 242215Z AUTO 36011KT 1 3/4SM BR OVC007 09/09 A3002 RMK AO2
KSDA 242155Z AUTO 36010KT 1 3/4SM BR OVC009 09/09 A3002 RMK AO2
KSDA 242135Z AUTO 35012KT 5SM BR OVC009 10/10 A3001 RMK AO2
KSDA 242115Z AUTO 34010KT 8SM BKN009 OVC013 10/10 A3000 RMK AO2
KSDA 242055Z AUTO 36007KT 2SM BR SCT007 OVC013 10/10 A3000 RMK AO2
KSDA 242035Z AUTO 01006KT 4SM BR FEW008 OVC013 10/10 A2999 RMK AO2
KSDA 242015Z AUTO 01007KT 9SM OVC010 10/10 A2999 RMK AO2
KSDA 241955Z AUTO 36006KT 10SM OVC009 10/10 A2998 RMK AO2
KSDA 241935Z AUTO 36006KT 10SM OVC010 10/10 A2997 RMK AO2
KSDA 241915Z AUTO 03006KT 10SM OVC011 11/10 A2997 RMK AO2
KSDA 241855Z AUTO 03006KT 10SM OVC011 11/10 A2997 RMK AO2
KSDA 241835Z AUTO 03005KT 10SM OVC011 11/11 A2997 RMK AO2
KSDA 241815Z AUTO 06004KT 10SM OVC009 11/10 A2996 RMK AO2
KSDA 241755Z AUTO 06006KT 10SM OVC008 11/10 A2996 RMK AO2
KSDA 241735Z AUTO 04007KT 9SM OVC007 10/10 A2995 RMK AO2
KSDA 241715Z AUTO 05008KT 7SM OVC006 10/10 A2995 RMK AO2
KSDA 241655Z AUTO 04008KT 5SM BR OVC006 10/10 A2995 RMK AO2
KSDA 241635Z AUTO 04010KT 5SM BR OVC007 10/10 A2995 RMK AO2
KSDA 241615Z AUTO 04006KT 6SM BR OVC008 10/10 A2994 RMK AO2
KSDA 241555Z AUTO 03003KT 6SM BR OVC008 10/10 A2994 RMK AO2
KSDA 241535Z AUTO 05003KT 8SM BKN008 OVC015 10/10 A2994 RMK AO2
KSDA 241515Z AUTO 07003KT 9SM SCT007 BKN014 OVC018 10/10 A2994 RMK AO2
KSDA 241455Z AUTO VRB04KT 5SM -DZ BKN007 OVC012 09/09 A2993 RMK AO2
KSDA 241435Z AUTO 05004KT 6SM BR OVC012 09/09 A2993 RMK AO2
KSDA 241415Z AUTO 12005KT 8SM OVC013 09/09 A2993 RMK AO2
KSDA 241355Z AUTO 12004KT 9SM OVC013 09/09 A2993 RMK AO2
KSDA 241335Z AUTO 12007KT 8SM SCT010 OVC014 09/09 A2992 RMK AO2
KSDA 241315Z AUTO 13007KT 7SM OVC010 09/09 A2992 RMK AO2
KSDA 241255Z AUTO 13008KT 6SM BR OVC010 09/09 A2992 RMK AO2
KSDA 241235Z AUTO 12009KT 10SM OVC009 09/09 A2992 RMK AO2
KSDA 241215Z AUTO 13008KT 10SM OVC009 09/09 A2991 RMK AO2
KSDA 241155Z AUTO 12009KT 10SM OVC010 09/09 A2991 RMK AO2
KSDA 241135Z AUTO 13009KT 10SM OVC011 09/09 A2991 RMK AO2
KSDA 241115Z AUTO 12009KT 10SM OVC012 09/09 A2991 RMK AO2
KSDA 241055Z AUTO 13010KT 10SM OVC013 09/09 A2991 RMK AO2
KSDA 241035Z AUTO 13009KT 10SM OVC015 09/09 A2991 RMK AO2
KSDA 241015Z AUTO 12010KT 10SM OVC015 09/09 A2991 RMK AO2
KSDA 240955Z AUTO 13008KT 10SM OVC016 09/09 A2991 RMK AO2
KSDA 240935Z AUTO 13007KT 10SM OVC017 09/09 A2991 RMK AO2
KSDA 240915Z AUTO 13007KT 7SM -DZ OVC017 09/09 A2992 RMK AO2
KSDA 240855Z AUTO 13005KT 4SM -RA SCT019 BKN033 OVC045 09/09 A2992 RMK AO2
KSDA 240835Z AUTO 14008KT 2 1/2SM -RA FEW004 BKN018 OVC049 09/09 A2993 RMK AO2
KSDA 240815Z AUTO 14009KT 5SM BR OVC019 10/10 A2993 RMK AO2
KSDA 240755Z AUTO 14009KT 10SM OVC019 10/10 A2994 RMK AO2
KSDA 240735Z AUTO 14007KT 10SM OVC016 10/10 A2994 RMK AO2
KSDA 240715Z AUTO 14008G13KT 10SM OVC018 10/10 A2995 RMK AO2
KSDA 240655Z AUTO 15009KT 6SM BR SCT011 BKN017 OVC021 10/10 A2995 RMK AO2
KSDA 240635Z AUTO 16013KT 2 1/2SM BR BKN014 OVC022 10/10 A2995 RMK AO2
KSDA 240615Z AUTO 16008KT 10SM OVC015 10/09 A2996 RMK AO2
KSDA 240555Z AUTO 15005KT 10SM OVC016 10/09 A2996 RMK AO2
KSDA 240535Z AUTO 13007KT 10SM OVC016 10/08 A2996 RMK AO2
KSDA 240515Z AUTO 11008KT 10SM OVC016 10/08 A2997 RMK AO2
KSDA 240455Z AUTO 11009KT 10SM OVC019 10/07 A2997 RMK AO2
KSDA 240435Z AUTO 11008KT 10SM OVC021 10/07 A2998 RMK AO2
KSDA 240415Z AUTO 12007KT 10SM OVC023 10/06 A2998 RMK AO2
KSDA 240355Z AUTO 11008KT 10SM OVC025 10/06 A2998 RMK AO2
KSDA 240335Z AUTO 12008KT 10SM OVC026 10/06 A2999 RMK AO2
KSDA 240315Z AUTO 13009KT 10SM BKN027 BKN036 OVC044 10/06 A2999 RMK AO2
KSDA 240255Z AUTO 13008G14KT 10SM BKN041 OVC046 10/06 A2999 RMK AO2
KSDA 240235Z AUTO 13011KT 10SM SCT041 OVC075 10/06 A2999 RMK AO2
KSDA 240215Z AUTO 13010KT 10SM OVC075 10/06 A2999 RMK AO2
KSDA 240155Z AUTO 12010G16KT 10SM SCT035 BKN070 OVC080 10/06 A2998 RMK AO2
KSDA 240135Z AUTO 11010KT 10SM OVC034 10/06 A2998 RMK AO2
KSDA 240115Z AUTO 11009KT 10SM OVC035 10/06 A2999 RMK AO2
KSDA 240055Z AUTO 10011KT 10SM OVC033 10/06 A2998 RMK AO2
KSDA 240035Z AUTO 09013G18KT 10SM OVC031 10/06 A2998 RMK AO2
KSDA 240015Z AUTO 10010G16KT 10SM OVC031 10/06 A2999 RMK AO2
KSDA 232355Z AUTO 10010G16KT 10SM OVC034 10/07 A3000 RMK AO2
KSDA 232335Z AUTO 09011G16KT 10SM OVC033 10/07 A3000 RMK AO2
KSDA 232315Z AUTO 09014KT 10SM OVC033 10/07 A3001 RMK AO2
KSDA 232255Z AUTO 09016KT 10SM OVC032 10/07 A3001 RMK AO2
KSDA 232235Z AUTO 10013KT 10SM OVC034 10/07 A3002 RMK AO2
KSDA 232215Z AUTO 11014KT 10SM OVC038 10/06 A3002 RMK AO2
KSDA 232155Z AUTO 11013G19KT 10SM OVC040 11/06 A3003 RMK AO2
KSDA 232135Z AUTO 11013G18KT 10SM OVC041 11/06 A3002 RMK AO2
KSDA 232115Z AUTO 10SM OVC044 11/04 A3002 RMK AO2
KSDA 232055Z AUTO 10SM OVC048 11/04 A3002 RMK AO2
KSDA 232035Z AUTO 10SM OVC050 11/03 A3002 RMK AO2
KSDA 232015Z AUTO 10SM OVC050 11/03 A3002 RMK AO2
KSDA 231955Z AUTO 10SM BKN060 OVC065 11/03 A3004 RMK AO2
KSDA 231935Z AUTO 10SM SCT065 OVC075 11/03 A3005 RMK AO2
KSDA 231915Z AUTO 10SM OVC075 11/03 A3006 RMK AO2
KSDA 231855Z AUTO 10SM BKN075 OVC085 11/03 A3006 RMK AO2
KSDA 231835Z AUTO 10SM SCT080 SCT090 12/03 A3006 RMK AO2
KSDA 231815Z AUTO 14015G20KT 10SM FEW080 BKN090 12/03 A3007 RMK AO2
KSDA 231755Z AUTO 10013G20KT 10SM OVC095 12/02 A3007 RMK AO2
KSDA 231735Z AUTO 12016G22KT 10SM OVC100 11/02 A3008 RMK AO2
KSDA 231715Z AUTO 11017KT 10SM OVC100 11/02 A3008 RMK AO2
KSDA 231655Z AUTO 12015KT 10SM FEW070 BKN095 10/03 A3009 RMK AO2
KSDA 231635Z AUTO 10SM FEW065 BKN095 10/03 A3010 RMK AO2
KSDA 231615Z AUTO 10010G18KT 10SM SCT070 BKN110 10/03 A3010 RMK AO2
KSDA 231555Z AUTO 11013G18KT 10SM FEW055 BKN100 09/03 A3012 RMK AO2
KSDA 231535Z AUTO 12011KT 10SM FEW047 BKN055 BKN065 08/03 A3012 RMK AO2
KSDA 231515Z AUTO 9SM FEW031 SCT048 BKN055 07/03 A3012 RMK AO2
KSDA 231455Z AUTO 12008KT 10SM FEW036 SCT050 BKN055 08/01 A3012 RMK AO2
KSDA 231435Z AUTO 11010KT 10SM SCT090 SCT120 08/00 A3011 RMK AO2
KSDA 231415Z AUTO 10012G17KT 10SM SCT095 SCT120 08/00 A3010 RMK AO2
KSDA 231355Z AUTO 10010G16KT 10SM FEW120 07/00 A3011 RMK AO2
KSDA 231335Z AUTO 11008KT 10SM CLR 06/00 A3011 RMK AO2
KSDA 231315Z AUTO 10006KT 10SM CLR 06/00 A3011 RMK AO2